Latest Coastal Weather Observations for Hopetoun North

IDW60701

Issued at 3:55 am WST Friday 25 July 2014 (issued every 10 minutes, with the page automatically refreshed every 10 minutes)

About coastal observations | Map of coastal stations | Coastal observations for WA | Marine services | Other Formats
Station Details ID: 009961 Name: HOPETOUN NORTH Lat: -33.93 Lon: 120.13 Height: 26.0 m
Data from the previous 72 hours. | See also: Recent months at Hopetoun North
Date/Time
WST
Temp

°C
Wind Pressure Rain
since 9am
mm
Weather Cloud Vis
km
Sea
Height
m
Swell
Dir
 
Speed
knots
Gust
knots
hPa Trend Height
m
Period
s
Dir
25/03:30am 5.4 N 5 8 1019.5 - 0.0 - - - - - - -
25/03:00am 5.5 N 6 8 1019.6 - 0.0 - - - - - - -
25/02:30am 5.2 N 5 7 1019.5 - 0.0 - - - - - - -
25/02:00am 4.9 N 4 6 1019.6 - 0.0 - - - - - - -
25/01:30am 5.2 N 3 5 1019.7 - 0.0 - - - - - - -
25/01:00am 5.6 N 5 6 1019.8 - 0.0 - - - - - - -
25/12:30am 5.6 N 4 6 1019.7 - 0.0 - - - - - - -
25/12:00am 5.4 N 4 5 1019.8 - 0.0 - - - - - - -
 
Date/Time
WST
Temp

°C
Wind Pressure Rain
since 9am
mm
Weather Cloud Vis
km
Sea
Height
m
Swell
Dir
 
Speed
knots
Gust
knots
hPa Trend Height
m
Period
s
Dir
24/11:30pm 6.3 NNW 4 5 1019.9 - 0.0 - - - - - - -
24/11:00pm 6.7 NW 5 7 1020.2 - 0.0 - - - - - - -
24/10:30pm 6.9 NNW 5 6 1020.3 - 0.0 - - - - - - -
24/10:00pm 6.9 N 4 5 1020.3 - 0.0 - - - - - - -
24/09:30pm 7.3 NNW 3 4 1020.3 - 0.0 - - - - - - -
24/09:00pm 7.6 NNW 5 6 1020.3 - 0.0 - - - - - - -
24/08:30pm 8.1 NNW 4 5 1020.3 - 0.0 - - - - - - -
24/08:00pm 8.6 N 4 5 1020.1 - 0.0 - - - - - - -
24/07:30pm 9.5 WNW 3 4 1020.0 - 0.0 - - - - - - -
24/07:00pm 10.7 SW 4 6 1019.9 - 0.0 - - - - - - -
24/06:30pm 10.8 SSW 6 9 1019.7 - 0.0 - - - - - - -
24/06:00pm 11.2 SSW 8 10 1019.6 - 0.0 - - - - - - -
24/05:30pm 10.9 SW 7 11 1019.1 - 0.0 - - - - - - -
24/05:00pm 11.5 SW 8 12 1018.8 - 0.0 - - - - - - -
24/04:30pm 12.2 SW 9 13 1018.6 - 0.0 - - - - - - -
24/04:00pm 12.8 SW 11 17 1018.4 - 0.0 - - - - - - -
24/03:30pm 13.0 WSW 10 15 1018.3 - 0.0 - - - - - - -
24/03:00pm 13.7 WSW 13 17 1018.3 - 0.0 - - - - - - -
24/02:30pm 13.4 WSW 11 17 1018.0 - 0.0 - - - - - - -
24/02:00pm 13.6 SW 11 17 1018.0 - 0.0 - - - - - - -
24/01:30pm 13.5 SW 12 16 1017.9 - 0.0 - - - - - - -
24/01:00pm 13.6 SW 10 17 1017.8 - 0.0 - - - - - - -
24/12:30pm 13.7 WSW 12 17 1017.9 - 0.0 - - - - - - -
24/12:00pm 13.4 WSW 13 19 1018.1 - 0.0 - - - - - - -
24/11:30am 12.9 WSW 13 18 1018.3 - 0.0 - - - - - - -
24/11:00am 13.1 WSW 13 19 1018.3 - 0.0 - - - - - - -
24/10:30am 12.4 WSW 14 20 1018.4 - 0.0 - - - - - - -
24/10:00am 12.0 WSW 13 18 1018.6 - 0.0 - - - - - - -
24/09:30am 11.5 WSW 13 20 1018.4 - 0.0 - - - - - - -
24/09:00am 10.7 W 11 18 1018.2 - 0.0 - - - - - - -
24/08:30am 10.0 W 11 16 1017.8 - 0.0 - - - - - - -
24/08:00am 9.4 W 10 15 1017.2 - 0.0 - - - - - - -
24/07:30am 8.8 W 11 16 1016.9 - 0.0 - - - - - - -
24/07:00am 8.9 W 11 18 1016.6 - 0.0 - - - - - - -
24/06:30am 7.5 WNW 7 12 1016.2 - 0.0 - - - - - - -
24/06:00am 7.8 WNW 9 13 1015.9 - 0.0 - - - - - - -
24/05:30am 8.1 WNW 9 14 1015.8 - 0.0 - - - - - - -
24/05:00am 8.2 W 9 14 1015.7 - 0.0 - - - - - - -
24/04:30am 7.8 WNW 10 17 1015.3 - 0.0 - - - - - - -
24/04:00am 7.8 WNW 10 15 1015.2 - 0.0 - - - - - - -
24/03:30am 7.7 WNW 10 15 1015.1 - 0.0 - - - - - - -
24/03:00am 7.7 WNW 10 16 1015.4 - 0.0 - - - - - - -
24/02:30am 7.5 WNW 10 19 1015.5 - 0.0 - - - - - - -
24/02:00am 8.7 WNW 13 20 1015.7 - 0.0 - - - - - - -
24/01:30am 8.6 NW 8 16 1015.8 - 0.0 - - - - - - -
24/01:00am 8.2 NW 6 14 1015.7 - 0.0 - - - - - - -
24/12:30am 7.4 NNW 6 10 1015.9 - 0.0 - - - - - - -
24/12:00am 6.8 NNW 7 10 1016.3 - 0.0 - - - - - - -
 
Date/Time
WST
Temp

°C
Wind Pressure Rain
since 9am
mm
Weather Cloud Vis
km
Sea
Height
m
Swell
Dir
 
Speed
knots
Gust
knots
hPa Trend Height
m
Period
s
Dir
23/11:30pm 6.4 NNW 7 11 1016.5 - 0.0 - - - - - - -
23/11:00pm 6.2 NNW 6 8 1016.7 - 0.0 - - - - - - -
23/10:30pm 7.2 NW 6 9 1017.0 - 0.0 - - - - - - -
23/10:00pm 6.3 NNW 5 7 1017.2 - 0.0 - - - - - - -
23/09:30pm 6.6 NW 4 7 1017.5 - 0.0 - - - - - - -
23/09:00pm 7.3 NW 4 8 1017.5 - 0.0 - - - - - - -
23/08:30pm 6.5 NW 6 8 1017.6 - 0.0 - - - - - - -
23/08:00pm 6.0 N 4 6 1017.6 - 0.0 - - - - - - -
23/07:30pm 6.6 NNW 4 6 1017.5 - 0.0 - - - - - - -
23/07:00pm 7.4 NW 5 7 1017.5 - 0.0 - - - - - - -
23/06:30pm 8.2 NW 5 7 1017.4 - 0.0 - - - - - - -
23/06:00pm 9.1 WNW 6 9 1017.4 - 0.0 - - - - - - -
23/05:30pm 9.9 W 10 14 1017.4 - 0.0 - - - - - - -
23/05:00pm 10.5 W 9 13 1017.5 - 0.0 - - - - - - -
23/04:30pm 11.0 W 7 11 1017.4 - 0.0 - - - - - - -
23/04:00pm 12.3 W 9 13 1017.1 - 0.0 - - - - - - -
23/03:30pm 12.8 W 11 16 1017.1 - 0.0 - - - - - - -
23/03:00pm 12.2 W 10 15 1017.1 - 0.0 - - - - - - -
23/02:30pm 12.3 WSW 13 18 1016.9 - 0.0 - - - - - - -
23/02:00pm 12.6 SW 11 17 1016.7 - 0.0 - - - - - - -
23/01:30pm 13.1 WSW 10 15 1016.7 - 0.0 - - - - - - -
23/01:00pm 12.2 WSW 11 15 1017.1 - 0.0 - - - - - - -
23/12:30pm 12.2 WSW 12 19 1017.3 - 0.0 - - - - - - -
23/12:00pm 12.5 WSW 13 19 1017.6 - 0.0 - - - - - - -
23/11:30am 12.5 WSW 11 16 1017.8 - 0.0 - - - - - - -
23/11:00am 11.9 W 12 16 1018.3 - 0.0 - - - - - - -
23/10:30am 11.3 W 12 17 1018.4 - 0.0 - - - - - - -
23/10:00am 10.6 W 12 17 1018.8 - 0.0 - - - - - - -
23/09:30am 10.1 W 10 15 1018.7 - 0.0 - - - - - - -
23/09:00am 9.5 W 13 19 1018.5 - 15.8 - - - - - - -
23/08:30am 9.3 W 11 16 1018.1 - 15.8 - - - - - - -
23/08:00am 8.9 W 9 13 1017.6 - 15.8 - - - - - - -
23/07:30am 9.0 W 9 14 1017.3 - 15.6 - - - - - - -
23/07:00am 8.9 W 11 16 1017.1 - 11.4 - - - - - - -
23/06:30am 9.1 W 11 15 1016.7 - 10.2 - - - - - - -
23/06:00am 9.6 W 11 15 1016.3 - 8.0 Rain - - - - - -
23/05:30am 9.3 W 10 16 1016.1 - 6.2 - - - - - - -
23/05:00am 9.2 W 12 18 1016.2 - 5.2 - - - - - - -
23/04:30am 9.5 W 10 14 1015.9 - 3.8 - - - - - - -
23/04:00am 10.1 WSW 11 16 1015.7 - 3.8 - - - - - - -
23/03:30am 8.8 W 7 10 1015.7 - 3.6 - - - - - - -
23/03:00am 8.5 W 8 12 1015.9 - 3.6 - - - - - - -
23/02:30am 8.2 W 9 13 1016.1 - 3.6 - - - - - - -
23/02:00am 8.1 W 10 14 1015.9 - 3.6 - - - - - - -
23/01:30am 8.2 W 11 17 1015.8 - 3.6 - - - - - - -
23/01:00am 8.2 W 10 13 1015.6 - 3.6 - - - - - - -
23/12:30am 8.8 W 13 18 1015.5 - 3.4 - - - - - - -
23/12:00am 8.4 W 11 15 1015.2 - 3.4 - - - - - - -
 
Date/Time
WST
Temp

°C
Wind Pressure Rain
since 9am
mm
Weather Cloud Vis
km
Sea
Height
m
Swell
Dir
 
Speed
knots
Gust
knots
hPa Trend Height
m
Period
s
Dir
22/11:30pm 8.1 W 9 13 1015.2 - 3.4 - - - - - - -
22/11:00pm 8.4 W 9 13 1015.3 - 3.4 - - - - - - -
22/10:30pm 8.2 W 7 13 1015.0 - 3.4 - - - - - - -
22/10:00pm 7.9 WNW 7 10 1014.9 - 3.4 - - - - - - -
22/09:30pm 8.1 WNW 6 9 1014.8 - 3.4 - - - - - - -
22/09:00pm 8.8 W 10 15 1014.6 - 3.4 Recent precip. - - - - - -
22/08:30pm 8.9 W 9 14 1014.5 - 3.4 - - - - - - -
22/08:00pm 8.5 W 7 11 1014.2 - 3.2 - - - - - - -
22/07:30pm 9.1 W 8 12 1014.1 - 3.2 - - - - - - -
22/07:00pm 10.3 WSW 8 12 1013.6 - 3.2 - - - - - - -
22/06:30pm 9.7 W 5 10 1013.2 - 3.2 - - - - - - -
22/06:00pm 9.7 WSW 6 10 1012.8 - 3.0 Recent precip. - - - - - -
22/05:30pm 9.1 WSW 6 9 1012.4 - 3.0 - - - - - - -
22/05:00pm 10.0 SSW 14 25 1012.4 - 1.0 - - - - - - -
22/04:30pm 11.3 W 9 14 1011.9 - 0.8 - - - - - - -
22/04:00pm 11.6 W 11 17 1011.5 - 0.8 - - - - - - -
22/03:30pm 10.9 WSW 11 18 1011.1 - 0.6 - - - - - - -
22/03:00pm 10.9 W 7 11 1010.9 - 0.6 - - - - - - -
22/02:30pm 9.9 W 9 12 1010.8 - 0.6 - - - - - - -
22/02:00pm 9.4 WNW 7 10 1010.8 - 0.6 - - - - - - -
22/01:30pm 11.1 W 9 13 1010.7 - 0.6 - - - - - - -
22/01:00pm 10.0 W 9 15 1010.7 - 0.6 - - - - - - -
22/12:30pm 10.1 W 11 18 1010.9 - 0.6 - - - - - - -
22/12:00pm 9.4 W 10 15 1011.3 - 0.6 Recent precip. - - - - - -
22/11:30am 9.9 W 10 13 1011.6 - 0.6 - - - - - - -
22/11:00am 9.6 W 8 11 1012.0 - 0.4 - - - - - - -
22/10:30am 8.7 WNW 5 7 1012.2 - 0.4 - - - - - - -
22/10:00am 8.8 W 2 4 1012.3 - 0.4 - - - - - - -
22/09:30am 8.5 N 2 2 1012.4 - 0.2 - - - - - - -
22/09:00am 8.4 NNE 2 3 1012.2 - 1.8 Recent precip. - - - - - -
22/08:30am 7.6 NE 2 3 1012.1 - 1.8 - - - - - - -
22/08:00am 7.7 E 1 2 1012.0 - 1.6 - - - - - - -
22/07:30am 7.9 NW 4 5 1012.2 - 0.8 - - - - - - -
22/07:00am 8.2 NNW 3 5 1012.0 - 0.2 - - - - - - -
22/06:30am 7.1 WSW 1 2 1011.9 - 0.2 - - - - - - -
22/06:00am 6.7 NW 2 4 1011.6 - 0.2 - - - - - - -
22/05:30am 6.1 NNE 4 5 1011.1 - 0.2 - - - - - - -
22/05:00am 5.8 NE 5 7 1011.2 - 0.2 - - - - - - -
22/04:30am 6.4 NE 6 8 1011.4 - 0.2 - - - - - - -
22/04:00am 7.2 NNE 7 9 1011.7 - 0.2 - - - - - - -

Other Formats:

Comma delimited format used in spreadsheet applications
http://www.bom.gov.au/fwo/IDW60701/IDW60701.95635.axf

JavaScript Object Notation format (JSON) in row-major order
http://www.bom.gov.au/fwo/IDW60701/IDW60701.95635.json